Time;durP1;ratioP1;P1;durP2;ratioP2;P2;SDS_P1;SDS_P2;PMS_P1;PMS_P2;Temp;Humidity;BMP_temperature;BMP_pressure;BME280_temperature;BME280_humidity;BME280_pressure;Samples;Min_cycle;Max_cycle;Signal;HPM_P1;HPM_P2
2022/02/06 00:01:14;;;;;;;;;;;;;;;-139.48;100.00;61774.03;5032653;28;20084;-74
2022/02/06 00:03:58;;;;;;;8.93;2.57;;;;;;;-139.48;100.00;61774.03;5003285;28;19967;-74
2022/02/06 00:06:43;;;;;;;6.88;3.15;;;;;;;-139.48;100.00;61774.03;5020971;28;20362;-74
2022/02/06 00:09:26;;;;;;;4.72;2.45;;;;;;;-139.48;100.00;61774.03;5020866;28;20052;-75
2022/02/06 00:12:10;;;;;;;;;;;;;;;-139.48;100.00;61774.03;5021271;28;20057;-75
2022/02/06 00:14:54;;;;;;;5.47;2.37;;;;;;;-139.48;100.00;61774.03;5020954;28;20331;-75
2022/02/06 00:17:38;;;;;;;6.38;2.50;;;;;;;-139.48;100.00;61774.03;5035898;28;20052;-74
2022/02/06 00:20:25;;;;;;;4.30;2.22;;;;;;;-139.48;100.00;61774.03;5035979;28;20074;-74
2022/02/06 00:23:12;;;;;;;7.97;2.60;;;;;;;-139.48;100.00;61774.03;5007232;28;20087;-75
2022/02/06 00:26:09;;;;;;;7.00;2.45;;;;;;;-139.48;100.00;61774.03;5035595;28;20127;-74
2022/02/06 00:29:09;;;;;;;7.38;2.92;;;;;;;-139.48;100.00;61774.03;5035978;28;20513;-75
2022/02/06 00:31:58;;;;;;;4.50;2.83;;;;;;;-139.48;100.00;61774.03;5020574;28;20048;-74
2022/02/06 00:43:43;;;;;;;6.80;2.53;;;;;;;-139.48;100.00;61774.03;5020893;28;20574;-74
2022/02/06 00:46:29;;;;;;;5.78;2.35;;;;;;;-139.48;100.00;61774.03;5035176;28;20091;-74
2022/02/06 00:49:17;;;;;;;7.68;2.88;;;;;;;-139.48;100.00;61774.03;5020349;28;20095;-74
2022/02/06 00:52:16;;;;;;;9.48;2.60;;;;;;;-139.48;100.00;61774.03;5020784;28;20131;-74
2022/02/06 00:55:00;;;;;;;6.38;2.83;;;;;;;-139.48;100.00;61774.03;5008262;28;20524;-74
2022/02/06 00:57:44;;;;;;;;;;;;;;;-139.48;100.00;61774.03;5035836;28;20091;-74
2022/02/06 01:00:28;;;;;;;6.93;3.00;;;;;;;-139.48;100.00;61774.03;5035032;28;19920;-74
2022/02/06 01:03:12;;;;;;;7.57;2.55;;;;;;;-139.48;100.00;61774.03;5019796;28;20266;-75
2022/02/06 01:05:56;;;;;;;7.43;2.63;;;;;;;-139.48;100.00;61774.03;5019999;28;20091;-74
2022/02/06 01:08:40;;;;;;;;;;;;;;;-139.48;100.00;61774.03;5035294;28;20115;-74
2022/02/06 01:11:24;;;;;;;8.70;2.70;;;;;;;-139.48;100.00;61774.03;5020011;28;19939;-74
2022/02/06 01:17:29;;;;;;;6.80;2.33;;;;;;;-139.48;100.00;61774.03;5029183;28;19924;-74
2022/02/06 01:20:37;;;;;;;7.50;2.60;;;;;;;-139.48;100.00;61774.03;5034810;28;20091;-74
2022/02/06 01:23:46;;;;;;;7.65;2.70;;;;;;;-139.48;100.00;61774.03;5022989;28;20107;-74
2022/02/06 01:26:38;;;;;;;6.20;2.45;;;;;;;-139.48;100.00;61774.03;5034488;28;20095;-74
2022/02/06 01:32:19;;;;;;;10.93;3.22;;;;;;;-139.48;100.00;61774.03;5034617;28;20195;-75
2022/02/06 01:35:12;;;;;;;11.32;3.20;;;;;;;-139.48;100.00;61774.03;5034567;28;20508;-74
2022/02/06 01:40:59;;;;;;;7.53;2.88;;;;;;;-139.48;100.00;61774.03;5034713;28;20583;-75
2022/02/06 01:43:49;;;;;;;7.03;2.85;;;;;;;-139.48;100.00;61774.03;5021511;28;20048;-75
2022/02/06 02:10:48;;;;;;;6.63;2.40;;;;;;;-139.48;100.00;61774.03;5019316;28;20087;-74
2022/02/06 02:22:42;;;;;;;6.80;2.42;;;;;;;-139.48;100.00;61774.03;5019483;28;20590;-74
2022/02/06 02:26:01;;;;;;;10.90;3.28;;;;;;;-139.48;100.00;61774.03;5033855;28;20151;-74
2022/02/06 02:32:23;;;;;;;6.03;2.58;;;;;;;-139.48;100.00;61774.03;5019109;28;20114;-74
2022/02/06 02:46:56;;;;;;;5.63;2.67;;;;;;;-139.48;100.00;61774.03;5033108;28;20106;-74
2022/02/06 02:49:46;;;;;;;6.93;2.53;;;;;;;-139.48;100.00;61774.03;5006034;28;20049;-74
2022/02/06 02:55:25;;;;;;;8.90;3.22;;;;;;;-139.48;100.00;61774.03;5033170;28;20048;-74
2022/02/06 03:01:11;;;;;;;8.10;3.00;;;;;;;-139.48;100.00;61774.03;5033044;28;20106;-74
2022/02/06 03:03:55;;;;;;;3.58;2.38;;;;;;;-139.48;100.00;61774.03;5020140;28;20126;-74
2022/02/06 03:06:39;;;;;;;;;;;;;;;-139.48;100.00;61774.03;5018402;28;20509;-74
2022/02/06 03:09:23;;;;;;;8.97;2.80;;;;;;;-139.48;100.00;61774.03;5032981;28;20387;-74
2022/02/06 03:12:08;;;;;;;8.27;3.13;;;;;;;-139.48;100.00;61774.03;5017500;28;20285;-74
2022/02/06 03:15:00;;;;;;;5.18;2.22;;;;;;;-139.48;100.00;61774.03;5033211;28;20136;-74
2022/02/06 03:17:56;;;;;;;8.52;2.33;;;;;;;-139.48;100.00;61774.03;5032755;28;20068;-74
2022/02/06 03:20:40;;;;;;;6.55;2.78;;;;;;;-139.48;100.00;61774.03;5032603;28;20063;-74
2022/02/06 03:23:24;;;;;;;;;;;;;;;-139.48;100.00;61774.03;5018105;28;20051;-74
2022/02/06 03:26:08;;;;;;;6.90;2.50;;;;;;;-139.48;100.00;61774.03;5032778;28;19959;-74
2022/02/06 03:28:56;;;;;;;7.18;2.80;;;;;;;-139.48;100.00;61774.03;5032621;28;20550;-74
2022/02/06 03:31:40;;;;;;;10.85;2.40;;;;;;;-139.48;100.00;61774.03;5018189;28;20103;-74
2022/02/06 03:34:24;;;;;;;11.07;2.25;;;;;;;-139.48;100.00;61774.03;5017940;28;20115;-74
2022/02/06 03:37:08;;;;;;;12.57;4.15;;;;;;;-139.48;100.00;61774.03;5017312;28;20047;-75
2022/02/06 03:39:54;;;;;;;5.93;2.47;;;;;;;-139.48;100.00;61774.03;5020720;28;20130;-74
2022/02/06 03:42:53;;;;;;;6.53;2.53;;;;;;;-139.48;100.00;61774.03;5021550;28;20191;-74
2022/02/06 03:46:01;;;;;;;4.30;1.98;;;;;;;-139.48;100.00;61774.03;5036314;28;20432;-74
2022/02/06 03:48:48;;;;;;;7.13;2.28;;;;;;;-139.48;100.00;61774.03;5036812;28;20515;-74
2022/02/06 03:51:34;;;;;;;10.73;2.45;;;;;;;-139.48;100.00;61774.03;5021411;28;20132;-74
2022/02/06 03:54:18;;;;;;;6.65;2.50;;;;;;;-139.48;100.00;61774.03;5036209;28;20100;-74
2022/02/06 03:57:02;;;;;;;6.03;2.38;;;;;;;-139.48;100.00;61774.03;5007225;28;20524;-74
2022/02/06 03:59:47;;;;;;;8.65;2.20;;;;;;;-139.48;100.00;61774.03;5036603;28;20045;-74
2022/02/06 04:02:30;;;;;;;8.63;3.38;;;;;;;-139.48;100.00;61774.03;5036031;28;20056;-74
2022/02/06 04:05:14;;;;;;;8.38;2.55;;;;;;;-139.48;100.00;61774.03;5021181;28;20048;-74
2022/02/06 04:07:58;;;;;;;6.47;2.33;;;;;;;-139.48;100.00;61774.03;5021202;28;20401;-74
2022/02/06 04:10:47;;;;;;;5.50;2.40;;;;;;;-139.48;100.00;61774.03;5036223;28;20485;-74
2022/02/06 04:13:34;;;;;;;4.82;2.13;;;;;;;-139.48;100.00;61774.03;5007445;28;20056;-74
2022/02/06 04:16:25;;;;;;;8.40;2.47;;;;;;;-139.48;100.00;61774.03;5007284;28;20048;-74
2022/02/06 04:19:19;;;;;;;8.38;2.45;;;;;;;-139.48;100.00;61774.03;5022010;28;20047;-74
2022/02/06 04:22:03;;;;;;;7.28;2.30;;;;;;;-139.48;100.00;61774.03;5046531;23;20080;-72
2022/02/06 04:24:47;;;;;;;;;;;;;;;-139.48;100.00;61774.03;5016940;28;20164;-72
2022/02/06 04:27:31;;;;;;;7.60;2.42;;;;;;;-139.48;100.00;61774.03;5015281;28;20461;-73
2022/02/06 04:30:15;;;;;;;;;;;;;;;-139.48;100.00;61774.03;4987779;28;20145;-73
2022/02/06 04:32:59;;;;;;;9.55;2.33;;;;;;;-139.48;100.00;61774.03;5015824;28;19988;-71
2022/02/06 04:35:43;;;;;;;;;;;;;;;-139.48;100.00;61774.03;4987616;28;20049;-71
2022/02/06 04:38:45;;;;;;;5.40;2.03;;;;;;;-139.48;100.00;61774.03;4987155;28;19924;-74
2022/02/06 04:41:59;;;;;;;4.22;2.17;;;;;;;-139.48;100.00;61774.03;5015851;28;20173;-73
2022/02/06 05:15:06;;;;;;;6.35;2.83;;;;;;;-139.48;100.00;61774.03;5015172;28;20048;-74
2022/02/06 05:23:57;;;;;;;7.38;2.50;;;;;;;-139.48;100.00;61774.03;5015103;28;20129;-73
2022/02/06 05:26:56;;;;;;;5.50;2.03;;;;;;;-139.48;100.00;61774.03;5014925;28;20478;-73
2022/02/06 05:32:36;;;;;;;6.80;2.17;;;;;;;-139.48;100.00;61774.03;5014806;28;20052;-73
2022/02/06 05:35:21;;;;;;;10.43;3.03;;;;;;;-139.48;100.00;61774.03;5014545;28;20048;-73
2022/02/06 05:38:05;;;;;;;7.50;2.53;;;;;;;-139.48;100.00;61774.03;4999673;28;20564;-74
2022/02/06 05:40:48;;;;;;;;;;;;;;;-139.48;100.00;61774.03;4999843;28;20066;-74
2022/02/06 05:43:33;;;;;;;4.78;2.13;;;;;;;-139.48;100.00;61774.03;5014680;28;19990;-73
2022/02/06 05:46:17;;;;;;;6.35;2.00;;;;;;;-139.48;100.00;61774.03;4985714;28;20084;-74
2022/02/06 05:49:01;;;;;;;5.82;1.90;;;;;;;-139.48;100.00;61774.03;5014513;28;20052;-73
2022/02/06 05:51:46;;;;;;;7.28;2.05;;;;;;;-139.48;100.00;61774.03;4999528;28;20104;-73
2022/02/06 05:54:30;;;;;;;4.65;2.17;;;;;;;-139.48;100.00;61774.03;4999677;28;20504;-74
2022/02/06 05:57:14;;;;;;;9.35;2.50;;;;;;;-139.48;100.00;61774.03;4999440;28;20049;-73
2022/02/06 05:59:57;;;;;;;6.63;2.13;;;;;;;-139.48;100.00;61774.03;4999268;28;20092;-72
2022/02/06 06:02:42;;;;;;;3.45;1.73;;;;;;;-139.48;100.00;61774.03;4998115;28;20100;-73
2022/02/06 06:05:26;;;;;;;5.32;2.38;;;;;;;-139.48;100.00;61774.03;4999081;28;20354;-73
2022/02/06 06:08:10;;;;;;;5.68;2.50;;;;;;;-139.48;100.00;61774.03;5014407;28;20049;-72
2022/02/06 06:10:54;;;;;;;5.45;2.28;;;;;;;-139.48;100.00;61774.03;4998958;28;20524;-74
2022/02/06 06:13:37;;;;;;;;;;;;;;;-139.48;100.00;61774.03;4999533;28;20048;-74
2022/02/06 06:16:22;;;;;;;9.38;2.83;;;;;;;-139.48;100.00;61774.03;5013959;28;19972;-73
2022/02/06 06:19:06;;;;;;;7.32;1.80;;;;;;;-139.48;100.00;61774.03;4998774;28;20049;-74
2022/02/06 06:21:55;;;;;;;7.20;2.20;;;;;;;-139.48;100.00;61774.03;5013604;28;20095;-72
2022/02/06 06:24:43;;;;;;;5.65;2.05;;;;;;;-139.48;100.00;61774.03;5013635;28;20084;-74
2022/02/06 06:27:26;;;;;;;6.97;2.17;;;;;;;-139.48;100.00;61774.03;4985414;28;20556;-73
2022/02/06 06:30:10;;;;;;;5.93;2.28;;;;;;;-139.48;100.00;61774.03;5013840;28;20092;-74
2022/02/06 06:32:54;;;;;;;;;;;;;;;-139.48;100.00;61774.03;4999151;28;20123;-71
2022/02/06 06:35:39;;;;;;;6.35;2.28;;;;;;;-139.48;100.00;61774.03;5013726;28;19996;-74
2022/02/06 06:38:23;;;;;;;4.28;2.45;;;;;;;-139.48;100.00;61774.03;4998696;28;20041;-74
2022/02/06 06:41:07;;;;;;;4.85;2.45;;;;;;;-139.48;100.00;61774.03;4998570;28;20088;-75
2022/02/06 06:43:51;;;;;;;;;;;;;;;-139.48;100.00;61774.03;5014027;28;20136;-72
2022/02/06 06:46:35;;;;;;;6.80;2.10;;;;;;;-139.48;100.00;61774.03;4998354;28;19928;-74
2022/02/06 06:49:19;;;;;;;5.72;1.98;;;;;;;-139.48;100.00;61774.03;5013227;28;20417;-74
2022/02/06 06:52:04;;;;;;;8.43;2.63;;;;;;;-139.48;100.00;61774.03;4998342;28;20516;-73
2022/02/06 06:54:57;;;;;;;5.07;1.95;;;;;;;-139.48;100.00;61774.03;4998246;28;20501;-75
2022/02/06 06:57:48;;;;;;;7.28;2.55;;;;;;;-139.48;100.00;61774.03;4999604;28;20072;-73
2022/02/06 07:00:40;;;;;;;5.95;2.20;;;;;;;-139.48;100.00;61774.03;4999410;28;20125;-72
2022/02/06 07:03:26;;;;;;;7.93;2.05;;;;;;;-139.48;100.00;61774.03;4999275;28;20088;-73
2022/02/06 07:06:10;;;;;;;8.43;2.38;;;;;;;-139.48;100.00;61774.03;4984595;28;20052;-74
2022/02/06 07:08:54;;;;;;;5.85;2.05;;;;;;;-139.48;100.00;61774.03;5013196;28;20053;-74
2022/02/06 07:11:37;;;;;;;11.90;2.50;;;;;;;-139.48;100.00;61774.03;5013017;28;20103;-73
2022/02/06 07:14:21;;;;;;;7.10;2.55;;;;;;;-139.48;100.00;61774.03;4997982;28;20509;-73
2022/02/06 07:17:05;;;;;;;6.13;1.70;;;;;;;-139.48;100.00;61774.03;5012776;28;20068;-73
2022/02/06 07:19:49;;;;;;;;;;;;;;;-139.48;100.00;61774.03;4998863;28;20072;-73
2022/02/06 07:22:36;;;;;;;8.20;2.28;;;;;;;-139.48;100.00;61774.03;4997737;28;19924;-73
2022/02/06 07:25:20;;;;;;;6.25;2.28;;;;;;;-139.48;100.00;61774.03;4998257;28;20057;-72
2022/02/06 07:28:04;;;;;;;;;;;;;;;-139.48;100.00;61774.03;5013211;28;20045;-73
2022/02/06 07:30:48;;;;;;;12.07;2.15;;;;;;;-139.48;100.00;61774.03;4984277;28;20384;-73
2022/02/06 07:33:31;;;;;;;4.55;1.90;;;;;;;-139.48;100.00;61774.03;5013006;28;20045;-73
2022/02/06 07:36:18;;;;;;;;;;;;;;;-139.48;100.00;61774.03;4998134;28;20516;-73
2022/02/06 07:39:02;;;;;;;5.47;2.05;;;;;;;-139.48;100.00;61774.03;4984577;28;19921;-73
2022/02/06 07:41:46;;;;;;;8.80;2.40;;;;;;;-139.48;100.00;61774.03;4998207;28;20080;-74
2022/02/06 07:44:30;;;;;;;9.63;2.83;;;;;;;-139.48;100.00;61774.03;5012657;28;20099;-74
2022/02/06 07:47:18;;;;;;;8.20;1.92;;;;;;;-139.48;100.00;61774.03;4997994;28;20045;-75
2022/02/06 07:50:04;;;;;;;13.27;2.47;;;;;;;-139.48;100.00;61774.03;4998561;28;20410;-74
2022/02/06 07:52:48;;;;;;;5.88;2.63;;;;;;;-139.48;100.00;61774.03;4984077;28;20049;-74
2022/02/06 07:55:32;;;;;;;8.88;2.28;;;;;;;-139.48;100.00;61774.03;5012757;28;20103;-74
2022/02/06 07:58:16;;;;;;;;;;;;;;;-139.48;100.00;61774.03;5013129;28;20396;-72
2022/02/06 08:01:00;;;;;;;8.07;2.33;;;;;;;-139.48;100.00;61774.03;5012685;28;19920;-73
2022/02/06 08:03:44;;;;;;;;;;;;;;;-139.48;100.00;61774.03;5013138;28;20603;-73
2022/02/06 08:06:28;;;;;;;6.73;1.80;;;;;;;-139.48;100.00;61774.03;4997715;28;19920;-74
2022/02/06 08:09:12;;;;;;;5.55;2.13;;;;;;;-139.48;100.00;61774.03;4997782;28;20742;-72
2022/02/06 08:11:56;;;;;;;6.05;2.20;;;;;;;-139.48;100.00;61774.03;5012471;28;20053;-73
2022/02/06 08:14:51;;;;;;;5.72;2.03;;;;;;;-139.48;100.00;61774.03;5012606;28;20520;-75
2022/02/06 08:17:37;;;;;;;8.95;2.50;;;;;;;-139.48;100.00;61774.03;5012534;28;20107;-73
2022/02/06 08:20:22;;;;;;;3.33;1.90;;;;;;;-139.48;100.00;61774.03;4997635;28;20048;-74
2022/02/06 08:23:06;;;;;;;7.70;2.00;;;;;;;-139.48;100.00;61774.03;4997193;28;20049;-74
2022/02/06 08:25:50;;;;;;;5.00;2.10;;;;;;;-139.48;100.00;61774.03;4998874;28;20457;-73
2022/02/06 08:28:37;;;;;;;;;;;;;;;-139.48;100.00;61774.03;5016428;28;20052;-74
2022/02/06 08:31:20;;;;;;;6.78;1.65;;;;;;;-139.48;100.00;61774.03;5000842;28;19920;-73
2022/02/06 08:34:04;;;;;;;7.10;2.28;;;;;;;-139.48;100.00;61774.03;5001002;28;20096;-73
2022/02/06 08:36:48;;;;;;;5.32;2.70;;;;;;;-139.48;100.00;61774.03;5015781;28;20105;-73
2022/02/06 08:39:33;;;;;;;5.68;1.90;;;;;;;-139.48;100.00;61774.03;5001067;28;20052;-73
2022/02/06 08:42:18;;;;;;;9.73;1.92;;;;;;;-139.48;100.00;61774.03;5001086;28;20072;-74
2022/02/06 08:45:02;;;;;;;8.18;2.33;;;;;;;-139.48;100.00;61774.03;5000626;28;20053;-74
2022/02/06 08:47:46;;;;;;;4.60;2.08;;;;;;;-139.48;100.00;61774.03;5000817;28;20044;-73
2022/02/06 08:50:31;;;;;;;4.95;2.10;;;;;;;-139.48;100.00;61774.03;5015693;28;20137;-73
2022/02/06 08:53:15;;;;;;;8.75;2.10;;;;;;;-139.48;100.00;61774.03;5000547;28;20076;-73
2022/02/06 08:55:59;;;;;;;7.53;2.00;;;;;;;-139.48;100.00;61774.03;5000443;28;20126;-74
2022/02/06 08:58:43;;;;;;;;;;;;;;;-139.48;100.00;61774.03;5001045;28;20048;-75
2022/02/06 09:01:27;;;;;;;7.60;2.60;;;;;;;-139.48;100.00;61774.03;5015355;28;20020;-73
2022/02/06 09:04:11;;;;;;;;;;;;;;;-139.48;100.00;61774.03;5000991;28;20049;-72
2022/02/06 09:06:59;;;;;;;10.10;2.10;;;;;;;-139.48;100.00;61774.03;5000192;28;19963;-74
2022/02/06 09:09:47;;;;;;;9.88;2.58;;;;;;;-139.48;100.00;61774.03;5000559;28;20108;-74
2022/02/06 09:12:31;;;;;;;8.38;2.15;;;;;;;-139.48;100.00;61774.03;5014818;28;20113;-72
2022/02/06 09:15:16;;;;;;;7.60;1.90;;;;;;;-139.48;100.00;61774.03;5000052;28;20421;-73
2022/02/06 09:18:00;;;;;;;4.25;1.92;;;;;;;-139.48;100.00;61774.03;4986500;28;20100;-74
2022/02/06 09:20:44;;;;;;;;;;;;;;;-139.48;100.00;61774.03;5000673;28;20049;-73
2022/02/06 09:23:28;;;;;;;7.55;1.80;;;;;;;-139.48;100.00;61774.03;5015017;28;19938;-72
2022/02/06 09:26:12;;;;;;;7.35;1.83;;;;;;;-139.48;100.00;61774.03;5014953;28;20121;-74
2022/02/06 09:28:56;;;;;;;7.55;2.55;;;;;;;-139.48;100.00;61774.03;4986135;28;20049;-74
2022/02/06 09:31:41;;;;;;;;;;;;;;;-139.48;100.00;61774.03;4986343;28;20060;-72
2022/02/06 09:37:10;;;;;;;6.97;2.10;;;;;;;-139.48;100.00;61774.03;5014262;28;20505;-72
2022/02/06 09:39:54;;;;;;;6.57;1.88;;;;;;;-139.48;100.00;61774.03;4986073;28;20469;-71
2022/02/06 09:42:38;;;;;;;7.22;1.95;;;;;;;-139.48;100.00;61774.03;4999573;28;20413;-73
2022/02/06 09:45:28;;;;;;;7.07;1.50;;;;;;;-139.48;100.00;61774.03;4999711;28;20056;-72
2022/02/06 09:48:13;;;;;;;5.53;1.92;;;;;;;-139.48;100.00;61774.03;4999435;28;20501;-74
2022/02/06 09:50:59;;;;;;;7.80;1.95;;;;;;;-139.48;100.00;61774.03;5014419;28;20136;-74
2022/02/06 09:53:43;;;;;;;4.45;1.80;;;;;;;-139.48;100.00;61774.03;4999842;28;20056;-74
2022/02/06 09:56:28;;;;;;;5.25;1.90;;;;;;;-139.48;100.00;61774.03;4985400;28;20508;-72
2022/02/06 09:59:20;;;;;;;5.07;1.88;;;;;;;-139.48;100.00;61774.03;4999619;28;20103;-73
2022/02/06 10:02:04;;;;;;;6.35;2.10;;;;;;;-139.48;100.00;61774.03;4999901;28;20098;-74
2022/02/06 10:04:49;;;;;;;9.50;2.10;;;;;;;-139.48;100.00;61774.03;4999287;28;20104;-75
2022/02/06 10:07:43;;;;;;;6.43;2.10;;;;;;;-139.48;100.00;61774.03;4999147;28;20044;-73
2022/02/06 10:10:27;;;;;;;3.38;1.80;;;;;;;-139.48;100.00;61774.03;4985534;28;20049;-74
2022/02/06 10:13:11;;;;;;;8.27;1.80;;;;;;;-139.48;100.00;61774.03;4999156;28;20072;-73
2022/02/06 10:15:56;;;;;;;6.15;1.88;;;;;;;-139.48;100.00;61774.03;4985425;28;20532;-73
2022/02/06 10:18:41;;;;;;;7.75;1.67;;;;;;;-139.48;100.00;61774.03;5013971;28;20123;-74
2022/02/06 10:21:30;;;;;;;6.90;1.75;;;;;;;-139.48;100.00;61774.03;4998542;28;20119;-74
2022/02/06 10:24:23;;;;;;;5.50;2.10;;;;;;;-139.48;100.00;61774.03;5025519;23;20445;-76
2022/02/06 10:29:58;;;;;;;5.70;2.05;;;;;;;-139.48;100.00;61774.03;5013269;28;20060;-77
2022/02/06 10:32:44;;;;;;;7.55;1.98;;;;;;;-139.48;100.00;61774.03;5013925;28;20127;-77
2022/02/06 10:35:40;;;;;;;3.65;2.47;;;;;;;-139.48;100.00;61774.03;4993177;28;20089;-75
2022/02/06 10:38:28;;;;;;;10.23;2.58;;;;;;;-139.48;100.00;61774.03;4992761;28;20129;-75
2022/02/06 10:41:16;;;;;;;7.32;2.42;;;;;;;-139.48;100.00;61774.03;4992829;28;20052;-75
2022/02/06 10:44:05;;;;;;;6.63;2.75;;;;;;;-139.48;100.00;61774.03;4993706;28;20161;-76
2022/02/06 10:46:58;;;;;;;12.23;2.75;;;;;;;-139.48;100.00;61774.03;4992766;28;20065;-75
2022/02/06 10:49:42;;;;;;;5.00;2.22;;;;;;;-139.48;100.00;61774.03;4993579;28;20092;-76
2022/02/06 10:52:26;;;;;;;9.18;2.72;;;;;;;-139.48;100.00;61774.03;4993899;28;20164;-76
2022/02/06 10:55:14;;;;;;;9.35;3.45;;;;;;;-139.48;100.00;61774.03;4992505;28;20049;-75
2022/02/06 10:58:00;;;;;;;12.32;3.22;;;;;;;-139.48;100.00;61774.03;4993731;28;20422;-75
2022/02/06 11:00:44;;;;;;;9.13;2.95;;;;;;;-139.48;100.00;61774.03;4992465;28;20485;-73
2022/02/06 11:03:34;;;;;;;;;;;;;;;-139.48;100.00;61774.03;4994483;28;20481;-76
2022/02/06 11:06:42;;;;;;;12.52;3.30;;;;;;;-139.48;100.00;61774.03;4993694;28;19921;-75
2022/02/06 11:09:27;;;;;;;14.68;3.90;;;;;;;-139.48;100.00;61774.03;4994599;28;20100;-76
2022/02/06 11:12:13;;;;;;;9.93;3.58;;;;;;;-139.48;100.00;61774.03;4992861;28;20404;-76
2022/02/06 11:15:01;;;;;;;10.93;3.95;;;;;;;-139.48;100.00;61774.03;4993243;28;20109;-76
2022/02/06 11:18:10;;;;;;;15.30;3.30;;;;;;;-139.48;100.00;61774.03;5006303;28;20466;-76
2022/02/06 11:20:56;;;;;;;11.35;3.30;;;;;;;-139.48;100.00;61774.03;4993250;28;20053;-75
2022/02/06 11:23:40;;;;;;;6.10;3.45;;;;;;;-139.48;100.00;61774.03;4992385;28;20069;-76
2022/02/06 11:26:26;;;;;;;12.05;4.50;;;;;;;-139.48;100.00;61774.03;4993187;28;20058;-76
2022/02/06 11:29:10;;;;;;;11.05;3.60;;;;;;;-139.48;100.00;61774.03;4993142;28;20577;-75
2022/02/06 11:31:55;;;;;;;13.80;3.67;;;;;;;-139.48;100.00;61774.03;4992254;28;20049;-76
2022/02/06 11:34:43;;;;;;;14.55;4.15;;;;;;;-139.48;100.00;61774.03;4993551;28;20435;-76
2022/02/06 11:44:09;;;;;;;10.65;4.05;;;;;;;-139.48;100.00;61774.03;4993230;28;20101;-76
2022/02/06 11:47:18;;;;;;;10.95;4.43;;;;;;;-139.48;100.00;61774.03;5006255;28;20135;-76
2022/02/06 11:50:08;;;;;;;9.32;4.30;;;;;;;-139.48;100.00;61774.03;4992089;28;20050;-75
2022/02/06 11:52:55;;;;;;;9.27;4.03;;;;;;;-139.48;100.00;61774.03;4978519;28;20088;-75
2022/02/06 11:55:48;;;;;;;10.05;3.90;;;;;;;-139.48;100.00;61774.03;4992164;28;20053;-76
2022/02/06 11:58:34;;;;;;;15.10;4.10;;;;;;;-139.48;100.00;61774.03;4991875;28;20045;-76
2022/02/06 12:01:17;;;;;;;8.98;4.35;;;;;;;-139.48;100.00;61774.03;4994852;28;20172;-76
2022/02/06 12:04:04;;;;;;;10.38;3.83;;;;;;;-139.48;100.00;61774.03;5009675;28;20046;-76
2022/02/06 12:06:49;;;;;;;9.10;4.30;;;;;;;-139.48;100.00;61774.03;4996774;28;20115;-76
2022/02/06 12:09:33;;;;;;;10.57;4.72;;;;;;;-139.48;100.00;61774.03;4997070;28;20093;-76
2022/02/06 12:12:20;;;;;;;12.15;5.25;;;;;;;-139.48;100.00;61774.03;4996695;28;20114;-76
2022/02/06 12:15:17;;;;;;;11.68;4.60;;;;;;;-139.48;100.00;61774.03;4995514;28;20052;-75
2022/02/06 12:18:12;;;;;;;14.55;5.10;;;;;;;-139.48;100.00;61774.03;4995330;28;20430;-76
2022/02/06 12:21:07;;;;;;;15.32;4.68;;;;;;;-139.48;100.00;61774.03;4996835;28;20049;-76
2022/02/06 12:23:54;;;;;;;14.15;4.90;;;;;;;-139.48;100.00;61774.03;4995250;28;20073;-75
2022/02/06 12:26:40;;;;;;;13.57;4.75;;;;;;;-139.48;100.00;61774.03;4995242;28;20173;-75
2022/02/06 12:29:26;;;;;;;14.52;5.28;;;;;;;-139.48;100.00;61774.03;4995492;28;20049;-75
2022/02/06 12:32:28;;;;;;;9.55;4.68;;;;;;;-139.48;100.00;61774.03;4996540;28;20108;-76
2022/02/06 12:38:19;;;;;;;13.75;4.40;;;;;;;-139.48;100.00;61774.03;4996248;28;20049;-75
2022/02/06 12:41:25;;;;;;;;;;;;;;;-139.48;100.00;61774.03;4995519;28;20056;-75
2022/02/06 12:44:09;;;;;;;10.43;4.10;;;;;;;-139.48;100.00;61774.03;4996387;28;19921;-74
2022/02/06 12:47:04;;;;;;;12.52;4.45;;;;;;;-139.48;100.00;61774.03;4995435;28;20065;-75
2022/02/06 12:49:48;;;;;;;9.65;3.78;;;;;;;-139.48;100.00;61774.03;4994994;28;20115;-76
2022/02/06 12:52:36;;;;;;;12.82;4.43;;;;;;;-139.48;100.00;61774.03;4994827;28;20050;-75
2022/02/06 12:55:27;;;;;;;15.73;4.30;;;;;;;-139.48;100.00;61774.03;4981043;28;20057;-75
2022/02/06 12:58:13;;;;;;;13.45;4.13;;;;;;;-139.48;100.00;61774.03;4994640;28;20414;-75
2022/02/06 13:00:57;;;;;;;7.43;4.00;;;;;;;-139.48;100.00;61774.03;4995744;28;20057;-75
2022/02/06 13:03:42;;;;;;;11.25;4.15;;;;;;;-139.48;100.00;61774.03;4994958;28;20410;-75
2022/02/06 13:06:33;;;;;;;10.18;4.80;;;;;;;-139.48;100.00;61774.03;4996064;28;20520;-75
2022/02/06 13:09:26;;;;;;;8.40;4.10;;;;;;;-139.48;100.00;61774.03;4995574;28;20414;-76
2022/02/06 13:12:27;;;;;;;15.57;4.82;;;;;;;-139.48;100.00;61774.03;4994076;28;20049;-76
2022/02/06 13:15:44;;;;;;;11.05;3.83;;;;;;;-139.48;100.00;61774.03;4996629;28;20129;-76
2022/02/06 13:18:36;;;;;;;11.38;4.95;;;;;;;-139.48;100.00;61774.03;4994669;28;20391;-76
2022/02/06 13:21:35;;;;;;;9.77;4.20;;;;;;;-139.48;100.00;61774.03;4995553;28;20045;-76
2022/02/06 13:24:54;;;;;;;10.25;3.65;;;;;;;-139.48;100.00;61774.03;4995014;28;20133;-76
2022/02/06 13:28:04;;;;;;;15.35;5.03;;;;;;;-139.48;100.00;61774.03;4994533;28;20040;-76
2022/02/06 13:31:18;;;;;;;8.18;4.63;;;;;;;-139.48;100.00;61774.03;4995634;28;20181;-77
2022/02/06 13:34:18;;;;;;;8.02;4.35;;;;;;;-139.48;100.00;61774.03;4995149;28;20131;-77
2022/02/06 13:37:24;;;;;;;8.02;3.85;;;;;;;-139.48;100.00;61774.03;4994299;28;20393;-77
2022/02/06 13:40:16;;;;;;;12.45;4.90;;;;;;;-139.48;100.00;61774.03;4994066;28;20049;-77
2022/02/06 13:43:07;;;;;;;14.35;5.20;;;;;;;-139.48;100.00;61774.03;4994304;28;20521;-77
2022/02/06 13:45:55;;;;;;;8.80;4.80;;;;;;;-139.48;100.00;61774.03;4994013;28;20053;-77
2022/02/06 13:48:40;;;;;;;7.93;4.40;;;;;;;-139.48;100.00;61774.03;4993954;28;20053;-76
2022/02/06 13:51:25;;;;;;;12.75;5.35;;;;;;;-139.48;100.00;61774.03;4995011;28;20068;-76
2022/02/06 13:54:09;;;;;;;11.80;4.88;;;;;;;-139.48;100.00;61774.03;4994806;28;20056;-75
2022/02/06 13:57:05;;;;;;;15.82;3.70;;;;;;;-139.48;100.00;61774.03;4994991;28;20041;-76
2022/02/06 13:59:49;;;;;;;13.50;4.57;;;;;;;-139.48;100.00;61774.03;4993557;28;20112;-76
2022/02/06 14:02:33;;;;;;;;;;;;;;;-139.48;100.00;61774.03;4995179;28;20080;-76
2022/02/06 14:05:17;;;;;;;10.77;4.60;;;;;;;-139.48;100.00;61774.03;4979983;28;20380;-75
2022/02/06 14:08:02;;;;;;;;;;;;;;;-139.48;100.00;61774.03;4995004;28;20533;-76
2022/02/06 14:11:03;;;;;;;12.25;4.97;;;;;;;-139.48;100.00;61774.03;4993563;28;19988;-76
2022/02/06 14:13:47;;;;;;;14.10;4.55;;;;;;;-139.48;100.00;61774.03;4993159;28;20049;-76
2022/02/06 14:16:31;;;;;;;14.02;4.65;;;;;;;-139.48;100.00;61774.03;4994383;28;20112;-75
2022/02/06 14:19:31;;;;;;;5.82;3.63;;;;;;;-139.48;100.00;61774.03;4993121;28;20478;-76
2022/02/06 14:22:36;;;;;;;12.32;3.55;;;;;;;-139.48;100.00;61774.03;4993259;28;20082;-76
2022/02/06 14:25:30;;;;;;;11.23;4.65;;;;;;;-139.48;100.00;61774.03;4992961;28;20045;-75
2022/02/06 14:28:26;;;;;;;11.55;4.05;;;;;;;-139.48;100.00;61774.03;4993344;28;20119;-76
2022/02/06 14:31:27;;;;;;;11.40;4.05;;;;;;;-139.48;100.00;61774.03;4994237;28;20052;-76
2022/02/06 14:34:18;;;;;;;9.02;4.38;;;;;;;-139.48;100.00;61774.03;4993877;28;20104;-76
2022/02/06 14:37:10;;;;;;;6.60;4.07;;;;;;;-139.48;100.00;61774.03;4992804;28;20163;-77
2022/02/06 14:40:13;;;;;;;9.63;4.57;;;;;;;-139.48;100.00;61774.03;4993160;28;20199;-75
2022/02/06 14:42:58;;;;;;;6.65;3.88;;;;;;;-139.48;100.00;61774.03;5007004;28;20045;-77
2022/02/06 14:45:54;;;;;;;5.85;3.70;;;;;;;-139.48;100.00;61774.03;4992895;28;20104;-77
2022/02/06 14:48:38;;;;;;;7.22;4.00;;;;;;;-139.48;100.00;61774.03;4993940;28;20148;-77
2022/02/06 14:51:25;;;;;;;7.40;3.80;;;;;;;-139.48;100.00;61774.03;4992856;28;20068;-76
2022/02/06 14:54:10;;;;;;;10.00;3.47;;;;;;;-139.48;100.00;61774.03;4992757;28;20069;-75
2022/02/06 14:56:54;;;;;;;8.85;3.85;;;;;;;-139.48;100.00;61774.03;4993664;28;20053;-76